Current Weather

Rantoul Ntl Avn Cntr-Frank Elliott Fld

Rantoul, Illinois (KTIP)

Report from: Friday, April 19, 2024 3:15 AM CDT
Current time: Friday, April 19, 2024 3:42 AM CDT

Nearby weather – Weather history – Daily summaries
Weather forecast

Temperature9.0°C (48.2°F)
Wind chill5.9°C (42.6°F)
Dew point7.5°C (45.5°F)
Winds 12 kts (6.2 m/s, 13.8 mph) Northwest (320°)
Visibility10 mi. (16.1 km)
Clouds Ceiling: Broken clouds 1,200 ft. (366 m)
Overcast 3,600 ft. (1,097 m)
Altimeter30.03 in.Hg (1017 mB)
Relative humidity90 %
Density altitude-695 ft. (-212 m)
Remarks Fully automated report
Automated weather observing station with precipitation discriminator
Flight conditions Marginal Visual Meteorological Conditions
Raw dataKTIP 190815Z AUTO 32012KT 10SM BKN012 OVC036 09/08 A3003 RMK AO2 T00900075
An error has occurred. This application may no longer respond until reloaded. Reload 🗙